createdAt,value
2019-03-20T00:01:22.284Z,71.96
2019-03-20T00:06:24.991Z,71.93
2019-03-20T00:11:27.672Z,71.79
2019-03-20T00:16:30.371Z,71.51
2019-03-20T00:21:33.077Z,71.26
2019-03-20T00:26:35.801Z,71.26
2019-03-20T00:31:38.510Z,71.26
2019-03-20T00:36:41.195Z,71.32
2019-03-20T00:41:43.923Z,71.66
2019-03-20T00:46:46.614Z,71.90
2019-03-20T00:51:49.308Z,72.05
2019-03-20T00:56:52.008Z,72.25
2019-03-20T01:01:54.702Z,72.43
2019-03-20T01:06:57.401Z,72.44
2019-03-20T01:12:00.103Z,72.39
2019-03-20T01:17:02.800Z,72.15
2019-03-20T01:22:05.496Z,72.16
2019-03-20T01:27:08.212Z,72.24
2019-03-20T01:32:10.997Z,72.29
2019-03-20T01:37:13.682Z,72.42
2019-03-20T01:42:16.408Z,72.41
2019-03-20T01:47:19.092Z,72.66
2019-03-20T01:52:21.780Z,73.04
2019-03-20T01:57:24.470Z,73.21
2019-03-20T02:02:27.170Z,73.22
2019-03-20T02:07:29.957Z,72.93
2019-03-20T02:12:32.755Z,72.91
2019-03-20T02:17:35.441Z,72.87
2019-03-20T02:22:38.139Z,72.62
2019-03-20T02:27:40.862Z,72.58
2019-03-20T02:32:43.590Z,72.44
2019-03-20T02:37:46.299Z,72.69
2019-03-20T02:42:48.984Z,73.35
2019-03-20T02:47:51.689Z,73.38
2019-03-20T02:52:54.415Z,73.25
2019-03-20T02:57:57.239Z,73.05
2019-03-20T03:02:59.943Z,73.29
2019-03-20T03:08:02.677Z,73.57
2019-03-20T03:13:05.403Z,73.27
2019-03-20T03:18:08.113Z,73.12
2019-03-20T03:23:10.878Z,73.11
2019-03-20T03:28:13.676Z,73.09
2019-03-20T03:33:16.385Z,73.24
2019-03-20T03:38:19.066Z,73.31
2019-03-20T03:43:24.173Z,73.44
2019-03-20T03:48:26.398Z,73.59
2019-03-20T03:53:37.772Z,73.54
2019-03-20T03:58:40.978Z,73.77
2019-03-20T04:03:43.777Z,73.98
2019-03-20T04:08:46.524Z,74.66
2019-03-20T04:13:49.302Z,74.41
2019-03-20T04:18:52.083Z,73.64
2019-03-20T04:23:54.906Z,73.43
2019-03-20T04:28:57.715Z,73.39
2019-03-20T04:34:00.505Z,73.50
2019-03-20T04:39:05.794Z,73.71
2019-03-20T04:44:08.519Z,74.03
2019-03-20T04:49:11.249Z,74.53
2019-03-20T04:54:13.984Z,74.95
2019-03-20T04:59:16.721Z,74.90
2019-03-20T05:04:19.437Z,75.05
2019-03-20T05:09:22.149Z,75.45
2019-03-20T05:14:24.851Z,75.64
2019-03-20T05:19:27.551Z,75.81
2019-03-20T05:24:30.279Z,76.05
2019-03-20T05:29:32.983Z,75.53
2019-03-20T05:34:35.691Z,75.01
2019-03-20T05:39:38.406Z,75.21
2019-03-20T05:44:41.101Z,75.08
2019-03-20T05:49:46.063Z,75.00
2019-03-20T05:54:48.895Z,75.32
2019-03-20T05:59:51.635Z,75.30
2019-03-20T06:04:54.369Z,75.10
2019-03-20T06:09:57.067Z,75.27
2019-03-20T06:14:59.789Z,75.34
2019-03-20T06:20:02.766Z,75.22
2019-03-20T06:25:06.025Z,75.31
2019-03-20T06:30:12.556Z,75.81
2019-03-20T06:35:15.399Z,75.33
2019-03-20T06:40:18.130Z,74.41
2019-03-20T06:45:20.963Z,73.64
2019-03-20T06:50:23.684Z,73.30
2019-03-20T06:55:26.968Z,73.19
2019-03-20T07:01:23.818Z,72.86
2019-03-20T07:06:51.441Z,73.00
2019-03-20T07:11:54.368Z,72.78
2019-03-20T07:16:57.412Z,72.67
2019-03-20T07:22:00.133Z,72.53
2019-03-20T07:27:02.833Z,72.64
2019-03-20T07:32:05.590Z,72.26
2019-03-20T07:37:08.640Z,71.69
2019-03-20T07:42:11.355Z,70.98
2019-03-20T07:47:14.081Z,70.30
2019-03-20T07:52:16.802Z,69.60
2019-03-20T07:57:19.519Z,68.70
2019-03-20T08:02:22.233Z,67.95
2019-03-20T08:07:24.964Z,67.87
2019-03-20T08:12:27.762Z,66.89
2019-03-20T08:17:30.584Z,66.18
2019-03-20T08:22:33.339Z,66.11
2019-03-20T08:27:36.070Z,65.94
2019-03-20T08:32:38.818Z,66.05
2019-03-20T08:37:41.583Z,65.78
2019-03-20T08:42:44.328Z,65.06
2019-03-20T08:47:47.088Z,64.01
2019-03-20T08:52:49.962Z,63.13
2019-03-20T08:57:52.689Z,63.03
2019-03-20T09:02:55.466Z,62.46
2019-03-20T09:07:58.242Z,62.62
2019-03-20T09:13:00.984Z,62.38
2019-03-20T09:18:03.922Z,60.80
2019-03-20T09:23:06.691Z,60.88
2019-03-20T09:28:09.421Z,59.26
2019-03-20T09:33:12.153Z,59.59
2019-03-20T09:38:14.856Z,58.23
2019-03-20T09:43:17.571Z,57.96
2019-03-20T09:48:20.293Z,57.78
2019-03-20T09:53:23.066Z,57.55
2019-03-20T09:58:25.785Z,57.71
2019-03-20T10:03:28.533Z,57.82
2019-03-20T10:08:31.268Z,57.24
2019-03-20T10:13:34.017Z,57.33
2019-03-20T10:18:36.772Z,57.03
2019-03-20T10:23:39.542Z,57.62
2019-03-20T10:28:42.285Z,57.41
2019-03-20T10:33:45.012Z,57.03
2019-03-20T10:38:48.801Z,57.26
2019-03-20T10:43:52.440Z,56.83
2019-03-20T10:48:56.374Z,57.03
2019-03-20T10:53:59.239Z,57.61
2019-03-20T10:59:01.994Z,56.66
2019-03-20T11:04:04.715Z,56.69
2019-03-20T11:09:17.771Z,56.37
2019-03-20T11:14:12.457Z,56.79
2019-03-20T11:19:15.183Z,57.02
2019-03-20T11:24:17.894Z,58.08
2019-03-20T11:29:21.712Z,57.57
2019-03-20T11:34:24.850Z,57.36
2019-03-20T11:39:29.941Z,57.27
2019-03-20T11:44:32.221Z,57.34
2019-03-20T11:49:34.952Z,57.94
2019-03-20T11:54:37.679Z,57.91
2019-03-20T11:59:40.414Z,57.83
2019-03-20T12:04:43.130Z,56.55
2019-03-20T12:09:45.844Z,57.12
2019-03-20T12:14:48.587Z,58.45
2019-03-20T12:19:51.348Z,58.06
2019-03-20T12:24:54.057Z,58.11
2019-03-20T12:29:56.766Z,57.52
2019-03-20T12:34:59.480Z,58.18
2019-03-20T12:40:02.350Z,57.92
2019-03-20T12:45:08.691Z,58.23
2019-03-20T12:50:11.461Z,57.95
2019-03-20T12:55:14.499Z,59.20
2019-03-20T13:00:19.443Z,59.23
2019-03-20T13:05:22.242Z,59.11
2019-03-20T13:10:25.004Z,59.34
2019-03-20T13:15:27.731Z,59.80
2019-03-20T13:20:30.469Z,60.14
2019-03-20T13:25:33.269Z,59.38
2019-03-20T13:30:58.597Z,59.15
2019-03-20T13:36:01.307Z,58.88
2019-03-20T13:41:04.144Z,58.66
2019-03-20T13:46:06.849Z,58.68
2019-03-20T13:51:09.550Z,58.62
2019-03-20T13:56:12.270Z,58.83
2019-03-20T14:01:14.989Z,58.72
2019-03-20T14:06:17.699Z,59.53
2019-03-20T14:11:20.426Z,59.65
2019-03-20T14:16:23.139Z,59.63
2019-03-20T14:21:25.853Z,59.73
2019-03-20T14:26:28.578Z,59.97
2019-03-20T14:31:31.315Z,60.05
2019-03-20T14:36:34.026Z,60.03
2019-03-20T14:41:36.744Z,59.81
2019-03-20T14:46:39.469Z,60.61
2019-03-20T14:51:42.279Z,60.38
2019-03-20T14:56:45.036Z,60.76
2019-03-20T15:01:47.967Z,60.72
2019-03-20T15:06:50.667Z,61.31
2019-03-20T15:11:53.359Z,61.62
2019-03-20T15:16:56.067Z,61.65
2019-03-20T15:21:58.815Z,62.14
2019-03-20T15:27:01.967Z,63.12
2019-03-20T15:32:04.695Z,63.07
2019-03-20T15:37:07.438Z,63.08
2019-03-20T15:42:10.165Z,63.70
2019-03-20T15:47:12.867Z,63.82
2019-03-20T15:52:15.593Z,63.62
2019-03-20T15:57:18.339Z,63.63
2019-03-20T16:02:21.058Z,63.92
2019-03-20T16:07:23.791Z,64.02
2019-03-20T16:12:26.511Z,64.87
2019-03-20T16:17:29.229Z,65.50
2019-03-20T16:22:31.945Z,65.71
2019-03-20T16:27:34.648Z,65.72
2019-03-20T16:32:37.450Z,65.72
2019-03-20T16:37:40.145Z,65.49
2019-03-20T16:42:42.868Z,65.76
2019-03-20T16:47:45.585Z,65.37
2019-03-20T16:52:48.294Z,65.74
2019-03-20T16:57:51.139Z,65.82
2019-03-20T17:02:53.883Z,65.88
2019-03-20T17:07:58.600Z,65.92
2019-03-20T17:13:01.437Z,66.12
2019-03-20T17:18:04.707Z,66.37
2019-03-20T17:23:07.967Z,66.89
2019-03-20T17:28:10.957Z,67.17
2019-03-20T17:33:13.778Z,67.28
2019-03-20T17:38:16.479Z,67.42
2019-03-20T17:43:19.226Z,67.61
2019-03-20T17:48:21.936Z,67.78
2019-03-20T17:53:24.637Z,68.06
2019-03-20T17:58:27.351Z,68.04
2019-03-20T18:03:30.068Z,68.27
2019-03-20T18:08:32.770Z,68.95
2019-03-20T18:13:36.464Z,69.74
2019-03-20T18:18:39.220Z,69.83
2019-03-20T18:23:41.982Z,69.68
2019-03-20T18:28:44.722Z,69.83
2019-03-20T18:33:47.458Z,69.91
2019-03-20T18:38:50.177Z,70.08
2019-03-20T18:43:52.989Z,70.52
2019-03-20T18:48:55.802Z,71.00
2019-03-20T18:53:59.065Z,70.98
2019-03-20T18:59:02.814Z,71.04
2019-03-20T19:04:05.702Z,71.12
2019-03-20T19:09:09.024Z,71.01
2019-03-20T19:14:11.833Z,71.24
2019-03-20T19:19:14.611Z,71.08
2019-03-20T19:24:17.315Z,71.09
2019-03-20T19:29:20.040Z,71.21
2019-03-20T19:34:22.772Z,71.32
2019-03-20T19:39:25.469Z,71.36
2019-03-20T19:44:28.184Z,71.23
2019-03-20T19:49:30.916Z,71.03
2019-03-20T19:54:33.836Z,70.89
2019-03-20T19:59:36.576Z,70.88
2019-03-20T20:04:39.282Z,70.83
2019-03-20T20:09:42.007Z,70.80
2019-03-20T20:14:45.597Z,70.67
2019-03-20T20:19:50.245Z,70.59
2019-03-20T20:24:53.029Z,70.62
2019-03-20T20:29:55.734Z,70.84
2019-03-20T20:34:58.439Z,71.05
2019-03-20T20:40:01.147Z,70.98
2019-03-20T20:45:04.256Z,71.04
2019-03-20T20:50:07.389Z,71.19
2019-03-20T20:55:11.386Z,71.04
2019-03-20T21:00:17.173Z,71.36
2019-03-20T21:05:19.911Z,71.61
2019-03-20T21:10:22.708Z,72.10
2019-03-20T21:15:46.887Z,72.14
2019-03-20T21:20:50.441Z,72.18
2019-03-20T21:25:54.350Z,72.33
2019-03-20T21:31:18.678Z,72.57
2019-03-20T21:37:02.933Z,72.68
2019-03-20T21:43:06.858Z,72.48
2019-03-20T21:48:05.341Z,72.66
2019-03-20T21:53:10.855Z,72.47
2019-03-20T21:58:36.716Z,72.81
2019-03-20T22:03:40.519Z,72.76
2019-03-20T22:08:44.035Z,72.82
2019-03-20T22:13:54.270Z,73.17
2019-03-20T22:19:44.252Z,73.32
2019-03-20T22:25:38.074Z,73.27
2019-03-20T22:30:41.593Z,73.33
2019-03-20T22:36:13.225Z,73.28
2019-03-20T22:42:24.630Z,73.02
2019-03-20T22:48:38.899Z,72.92
2019-03-20T22:55:00.081Z,72.88
2019-03-20T23:00:04.852Z,73.07
2019-03-20T23:05:09.215Z,73.25
2019-03-20T23:10:13.880Z,73.05
2019-03-20T23:15:17.601Z,72.97
2019-03-20T23:20:23.188Z,72.97
2019-03-20T23:25:26.712Z,73.09
2019-03-20T23:30:30.309Z,73.16
2019-03-20T23:35:33.848Z,73.10
2019-03-20T23:40:37.368Z,72.96
2019-03-20T23:45:40.894Z,72.99
2019-03-20T23:50:44.458Z,73.03
2019-03-20T23:55:48.017Z,73.03
